sensor_id;sensor_type;location;lat;lon;timestamp;P1;durP1;ratioP1;P2;durP2;ratioP2
78885;SDS011;68269;52.514;5.722;2023-09-30T00:01:54;7.55;;;1.65;;
78885;SDS011;68269;52.514;5.722;2023-09-30T00:04:24;7.60;;;1.30;;
78885;SDS011;68269;52.514;5.722;2023-09-30T00:06:58;9.85;;;1.23;;
78885;SDS011;68269;52.514;5.722;2023-09-30T00:09:27;7.55;;;1.55;;
78885;SDS011;68269;52.514;5.722;2023-09-30T00:11:56;8.73;;;1.50;;
78885;SDS011;68269;52.514;5.722;2023-09-30T00:14:26;5.80;;;1.13;;
78885;SDS011;68269;52.514;5.722;2023-09-30T00:16:55;6.05;;;1.27;;
78885;SDS011;68269;52.514;5.722;2023-09-30T00:19:25;6.25;;;1.30;;
78885;SDS011;68269;52.514;5.722;2023-09-30T00:21:59;7.97;;;1.40;;
78885;SDS011;68269;52.514;5.722;2023-09-30T00:24:29;7.65;;;1.52;;
78885;SDS011;68269;52.514;5.722;2023-09-30T00:26:59;12.02;;;2.17;;
78885;SDS011;68269;52.514;5.722;2023-09-30T00:29:29;5.38;;;0.98;;
78885;SDS011;68269;52.514;5.722;2023-09-30T00:31:58;8.48;;;1.48;;
78885;SDS011;68269;52.514;5.722;2023-09-30T00:34:27;9.25;;;1.27;;
78885;SDS011;68269;52.514;5.722;2023-09-30T00:36:59;3.65;;;1.05;;
78885;SDS011;68269;52.514;5.722;2023-09-30T00:39:28;7.15;;;1.20;;
78885;SDS011;68269;52.514;5.722;2023-09-30T00:41:58;5.53;;;1.30;;
78885;SDS011;68269;52.514;5.722;2023-09-30T00:44:29;3.72;;;1.08;;
78885;SDS011;68269;52.514;5.722;2023-09-30T00:46:58;4.90;;;1.23;;
78885;SDS011;68269;52.514;5.722;2023-09-30T00:49:28;6.65;;;1.38;;
78885;SDS011;68269;52.514;5.722;2023-09-30T00:52:02;8.27;;;1.48;;
78885;SDS011;68269;52.514;5.722;2023-09-30T00:54:32;4.30;;;0.90;;
78885;SDS011;68269;52.514;5.722;2023-09-30T00:57:04;8.65;;;1.45;;
78885;SDS011;68269;52.514;5.722;2023-09-30T00:59:33;5.30;;;1.30;;
78885;SDS011;68269;52.514;5.722;2023-09-30T01:02:03;6.10;;;1.27;;
78885;SDS011;68269;52.514;5.722;2023-09-30T01:04:33;4.63;;;0.95;;
78885;SDS011;68269;52.514;5.722;2023-09-30T01:07:05;7.18;;;1.60;;
78885;SDS011;68269;52.514;5.722;2023-09-30T01:09:34;5.68;;;1.55;;
78885;SDS011;68269;52.514;5.722;2023-09-30T01:12:04;6.47;;;1.17;;
78885;SDS011;68269;52.514;5.722;2023-09-30T01:14:36;8.68;;;1.50;;
78885;SDS011;68269;52.514;5.722;2023-09-30T01:17:08;7.20;;;1.40;;
78885;SDS011;68269;52.514;5.722;2023-09-30T01:19:39;8.32;;;1.45;;
78885;SDS011;68269;52.514;5.722;2023-09-30T01:22:11;6.53;;;1.35;;
78885;SDS011;68269;52.514;5.722;2023-09-30T01:24:40;7.30;;;1.35;;
78885;SDS011;68269;52.514;5.722;2023-09-30T01:27:13;5.50;;;1.20;;
78885;SDS011;68269;52.514;5.722;2023-09-30T01:29:45;10.20;;;2.17;;
78885;SDS011;68269;52.514;5.722;2023-09-30T01:32:15;8.38;;;1.90;;
78885;SDS011;68269;52.514;5.722;2023-09-30T01:34:44;7.95;;;1.40;;
78885;SDS011;68269;52.514;5.722;2023-09-30T01:37:16;7.68;;;1.58;;
78885;SDS011;68269;52.514;5.722;2023-09-30T01:39:45;7.72;;;1.60;;
78885;SDS011;68269;52.514;5.722;2023-09-30T01:42:16;10.45;;;1.50;;
78885;SDS011;68269;52.514;5.722;2023-09-30T01:44:45;9.20;;;1.70;;
78885;SDS011;68269;52.514;5.722;2023-09-30T01:47:15;6.47;;;1.40;;
78885;SDS011;68269;52.514;5.722;2023-09-30T01:49:44;5.38;;;1.52;;
78885;SDS011;68269;52.514;5.722;2023-09-30T01:52:17;5.20;;;1.23;;
78885;SDS011;68269;52.514;5.722;2023-09-30T01:54:47;6.22;;;1.52;;
78885;SDS011;68269;52.514;5.722;2023-09-30T01:57:17;8.20;;;1.67;;
78885;SDS011;68269;52.514;5.722;2023-09-30T01:59:46;8.48;;;1.58;;
78885;SDS011;68269;52.514;5.722;2023-09-30T02:02:16;6.60;;;1.65;;
78885;SDS011;68269;52.514;5.722;2023-09-30T02:04:46;7.78;;;2.10;;
78885;SDS011;68269;52.514;5.722;2023-09-30T02:07:18;7.53;;;1.73;;
78885;SDS011;68269;52.514;5.722;2023-09-30T02:09:48;8.00;;;1.60;;
78885;SDS011;68269;52.514;5.722;2023-09-30T02:12:18;7.53;;;1.70;;
78885;SDS011;68269;52.514;5.722;2023-09-30T02:14:47;10.45;;;1.95;;
78885;SDS011;68269;52.514;5.722;2023-09-30T02:17:17;7.30;;;1.55;;
78885;SDS011;68269;52.514;5.722;2023-09-30T02:19:46;10.30;;;1.80;;
78885;SDS011;68269;52.514;5.722;2023-09-30T02:22:18;9.20;;;1.83;;
78885;SDS011;68269;52.514;5.722;2023-09-30T02:24:49;8.15;;;1.73;;
78885;SDS011;68269;52.514;5.722;2023-09-30T02:27:20;9.10;;;1.90;;
78885;SDS011;68269;52.514;5.722;2023-09-30T02:29:49;9.80;;;2.35;;
78885;SDS011;68269;52.514;5.722;2023-09-30T02:32:18;6.63;;;1.40;;
78885;SDS011;68269;52.514;5.722;2023-09-30T02:34:49;11.43;;;1.98;;
78885;SDS011;68269;52.514;5.722;2023-09-30T02:37:22;11.05;;;2.20;;
78885;SDS011;68269;52.514;5.722;2023-09-30T02:39:51;8.55;;;2.03;;
78885;SDS011;68269;52.514;5.722;2023-09-30T02:42:21;12.55;;;2.15;;
78885;SDS011;68269;52.514;5.722;2023-09-30T02:44:50;10.20;;;1.95;;
78885;SDS011;68269;52.514;5.722;2023-09-30T02:47:20;8.90;;;2.03;;
78885;SDS011;68269;52.514;5.722;2023-09-30T02:49:49;12.57;;;1.92;;
78885;SDS011;68269;52.514;5.722;2023-09-30T02:52:18;9.63;;;2.13;;
78885;SDS011;68269;52.514;5.722;2023-09-30T02:54:51;9.60;;;2.25;;
78885;SDS011;68269;52.514;5.722;2023-09-30T02:57:21;10.23;;;2.63;;
78885;SDS011;68269;52.514;5.722;2023-09-30T02:59:50;9.77;;;1.90;;
78885;SDS011;68269;52.514;5.722;2023-09-30T03:02:22;11.82;;;2.13;;
78885;SDS011;68269;52.514;5.722;2023-09-30T03:04:52;8.98;;;2.20;;
78885;SDS011;68269;52.514;5.722;2023-09-30T03:07:26;12.63;;;2.08;;
78885;SDS011;68269;52.514;5.722;2023-09-30T03:09:59;8.13;;;2.15;;
78885;SDS011;68269;52.514;5.722;2023-09-30T03:12:30;11.30;;;2.35;;
78885;SDS011;68269;52.514;5.722;2023-09-30T03:14:59;11.00;;;2.53;;
78885;SDS011;68269;52.514;5.722;2023-09-30T03:17:30;8.90;;;2.13;;
78885;SDS011;68269;52.514;5.722;2023-09-30T03:20:01;8.60;;;2.33;;
78885;SDS011;68269;52.514;5.722;2023-09-30T03:22:40;8.30;;;1.95;;
78885;SDS011;68269;52.514;5.722;2023-09-30T03:25:12;10.13;;;2.28;;
78885;SDS011;68269;52.514;5.722;2023-09-30T03:27:43;8.90;;;2.45;;
78885;SDS011;68269;52.514;5.722;2023-09-30T03:30:13;10.68;;;2.30;;
78885;SDS011;68269;52.514;5.722;2023-09-30T03:32:45;10.23;;;2.63;;
78885;SDS011;68269;52.514;5.722;2023-09-30T03:35:14;8.55;;;2.30;;
78885;SDS011;68269;52.514;5.722;2023-09-30T03:37:47;9.27;;;2.85;;
78885;SDS011;68269;52.514;5.722;2023-09-30T03:40:16;10.35;;;2.67;;
78885;SDS011;68269;52.514;5.722;2023-09-30T03:42:53;13.20;;;3.22;;
78885;SDS011;68269;52.514;5.722;2023-09-30T03:45:23;9.23;;;2.13;;
78885;SDS011;68269;52.514;5.722;2023-09-30T03:47:53;11.05;;;2.55;;
78885;SDS011;68269;52.514;5.722;2023-09-30T03:50:23;10.05;;;2.40;;
78885;SDS011;68269;52.514;5.722;2023-09-30T03:53:00;8.85;;;2.50;;
78885;SDS011;68269;52.514;5.722;2023-09-30T03:55:30;8.27;;;2.75;;
78885;SDS011;68269;52.514;5.722;2023-09-30T03:58:00;10.65;;;2.60;;
78885;SDS011;68269;52.514;5.722;2023-09-30T04:00:30;9.88;;;2.42;;
78885;SDS011;68269;52.514;5.722;2023-09-30T04:02:59;8.60;;;2.25;;
78885;SDS011;68269;52.514;5.722;2023-09-30T04:05:28;7.32;;;2.45;;
78885;SDS011;68269;52.514;5.722;2023-09-30T04:08:04;9.05;;;2.40;;
78885;SDS011;68269;52.514;5.722;2023-09-30T04:10:34;9.32;;;2.17;;
78885;SDS011;68269;52.514;5.722;2023-09-30T04:13:03;10.13;;;2.50;;
78885;SDS011;68269;52.514;5.722;2023-09-30T04:15:32;10.25;;;2.58;;
78885;SDS011;68269;52.514;5.722;2023-09-30T04:18:03;9.13;;;2.30;;
78885;SDS011;68269;52.514;5.722;2023-09-30T04:20:33;10.40;;;2.45;;
78885;SDS011;68269;52.514;5.722;2023-09-30T04:23:08;16.05;;;3.58;;
78885;SDS011;68269;52.514;5.722;2023-09-30T04:28:09;7.20;;;1.85;;
78885;SDS011;68269;52.514;5.722;2023-09-30T04:30:38;8.07;;;2.40;;
78885;SDS011;68269;52.514;5.722;2023-09-30T04:33:07;9.85;;;2.83;;
78885;SDS011;68269;52.514;5.722;2023-09-30T04:35:38;9.60;;;2.35;;
78885;SDS011;68269;52.514;5.722;2023-09-30T04:38:10;9.05;;;2.72;;
78885;SDS011;68269;52.514;5.722;2023-09-30T04:40:39;13.10;;;2.70;;
78885;SDS011;68269;52.514;5.722;2023-09-30T04:43:10;8.90;;;2.38;;
78885;SDS011;68269;52.514;5.722;2023-09-30T04:45:40;11.18;;;3.05;;
78885;SDS011;68269;52.514;5.722;2023-09-30T04:48:09;8.00;;;2.58;;
78885;SDS011;68269;52.514;5.722;2023-09-30T04:50:38;11.00;;;2.85;;
78885;SDS011;68269;52.514;5.722;2023-09-30T04:53:10;8.48;;;2.47;;
78885;SDS011;68269;52.514;5.722;2023-09-30T04:55:41;9.57;;;2.83;;
78885;SDS011;68269;52.514;5.722;2023-09-30T04:58:10;10.48;;;2.88;;
78885;SDS011;68269;52.514;5.722;2023-09-30T05:00:40;10.45;;;2.80;;
78885;SDS011;68269;52.514;5.722;2023-09-30T05:03:09;10.77;;;2.72;;
78885;SDS011;68269;52.514;5.722;2023-09-30T05:05:38;9.13;;;2.70;;
78885;SDS011;68269;52.514;5.722;2023-09-30T05:08:10;9.18;;;3.00;;
78885;SDS011;68269;52.514;5.722;2023-09-30T05:10:39;13.48;;;2.63;;
78885;SDS011;68269;52.514;5.722;2023-09-30T05:13:09;10.02;;;3.03;;
78885;SDS011;68269;52.514;5.722;2023-09-30T05:15:38;9.23;;;2.88;;
78885;SDS011;68269;52.514;5.722;2023-09-30T05:18:07;10.57;;;2.95;;
78885;SDS011;68269;52.514;5.722;2023-09-30T05:20:37;12.77;;;3.42;;
78885;SDS011;68269;52.514;5.722;2023-09-30T05:23:06;11.00;;;3.75;;
78885;SDS011;68269;52.514;5.722;2023-09-30T05:25:38;10.10;;;2.83;;
78885;SDS011;68269;52.514;5.722;2023-09-30T05:28:08;11.75;;;3.45;;
78885;SDS011;68269;52.514;5.722;2023-09-30T05:30:39;11.32;;;3.10;;
78885;SDS011;68269;52.514;5.722;2023-09-30T05:33:09;11.45;;;3.70;;
78885;SDS011;68269;52.514;5.722;2023-09-30T05:35:40;11.82;;;3.50;;
78885;SDS011;68269;52.514;5.722;2023-09-30T05:38:12;8.65;;;3.03;;
78885;SDS011;68269;52.514;5.722;2023-09-30T05:40:42;10.25;;;3.25;;
78885;SDS011;68269;52.514;5.722;2023-09-30T05:43:11;10.82;;;2.78;;
78885;SDS011;68269;52.514;5.722;2023-09-30T05:45:42;9.88;;;2.85;;
78885;SDS011;68269;52.514;5.722;2023-09-30T05:48:15;11.82;;;3.47;;
78885;SDS011;68269;52.514;5.722;2023-09-30T05:50:44;10.88;;;3.33;;
78885;SDS011;68269;52.514;5.722;2023-09-30T05:53:16;12.32;;;3.00;;
78885;SDS011;68269;52.514;5.722;2023-09-30T05:58:16;9.95;;;2.92;;
78885;SDS011;68269;52.514;5.722;2023-09-30T06:00:46;9.80;;;3.70;;
78885;SDS011;68269;52.514;5.722;2023-09-30T06:03:16;12.60;;;3.55;;
78885;SDS011;68269;52.514;5.722;2023-09-30T06:05:47;13.65;;;3.72;;
78885;SDS011;68269;52.514;5.722;2023-09-30T06:08:19;11.98;;;4.03;;
78885;SDS011;68269;52.514;5.722;2023-09-30T06:10:48;12.90;;;3.47;;
78885;SDS011;68269;52.514;5.722;2023-09-30T06:13:20;12.23;;;3.45;;
78885;SDS011;68269;52.514;5.722;2023-09-30T06:15:49;13.68;;;4.72;;
78885;SDS011;68269;52.514;5.722;2023-09-30T06:18:18;14.73;;;3.90;;
78885;SDS011;68269;52.514;5.722;2023-09-30T06:20:48;12.73;;;3.50;;
78885;SDS011;68269;52.514;5.722;2023-09-30T06:23:20;12.48;;;3.72;;
78885;SDS011;68269;52.514;5.722;2023-09-30T06:25:50;10.93;;;3.83;;
78885;SDS011;68269;52.514;5.722;2023-09-30T06:28:20;12.85;;;3.88;;
78885;SDS011;68269;52.514;5.722;2023-09-30T06:30:51;11.80;;;4.30;;
78885;SDS011;68269;52.514;5.722;2023-09-30T06:33:21;15.70;;;3.88;;
78885;SDS011;68269;52.514;5.722;2023-09-30T06:35:50;12.95;;;3.85;;
78885;SDS011;68269;52.514;5.722;2023-09-30T06:38:23;10.52;;;3.50;;
78885;SDS011;68269;52.514;5.722;2023-09-30T06:40:52;12.40;;;3.35;;
78885;SDS011;68269;52.514;5.722;2023-09-30T06:43:22;12.30;;;4.60;;
78885;SDS011;68269;52.514;5.722;2023-09-30T06:45:51;12.60;;;3.97;;
78885;SDS011;68269;52.514;5.722;2023-09-30T06:48:20;14.65;;;4.32;;
78885;SDS011;68269;52.514;5.722;2023-09-30T06:50:50;12.25;;;3.88;;
78885;SDS011;68269;52.514;5.722;2023-09-30T06:53:22;12.25;;;4.07;;
78885;SDS011;68269;52.514;5.722;2023-09-30T06:55:52;11.18;;;3.42;;
78885;SDS011;68269;52.514;5.722;2023-09-30T06:58:21;13.60;;;4.00;;
78885;SDS011;68269;52.514;5.722;2023-09-30T07:00:51;11.88;;;3.75;;
78885;SDS011;68269;52.514;5.722;2023-09-30T07:03:22;12.18;;;3.75;;
78885;SDS011;68269;52.514;5.722;2023-09-30T07:05:51;13.00;;;3.53;;
78885;SDS011;68269;52.514;5.722;2023-09-30T07:08:24;12.48;;;4.28;;
78885;SDS011;68269;52.514;5.722;2023-09-30T07:10:54;12.43;;;4.65;;
78885;SDS011;68269;52.514;5.722;2023-09-30T07:13:24;12.02;;;4.55;;
78885;SDS011;68269;52.514;5.722;2023-09-30T07:15:53;11.90;;;4.28;;
78885;SDS011;68269;52.514;5.722;2023-09-30T07:18:22;13.70;;;4.45;;
78885;SDS011;68269;52.514;5.722;2023-09-30T07:20:52;10.60;;;3.85;;
78885;SDS011;68269;52.514;5.722;2023-09-30T07:23:24;11.25;;;3.95;;
78885;SDS011;68269;52.514;5.722;2023-09-30T07:25:53;15.13;;;4.78;;
78885;SDS011;68269;52.514;5.722;2023-09-30T07:28:23;13.07;;;4.22;;
78885;SDS011;68269;52.514;5.722;2023-09-30T07:30:52;12.73;;;4.13;;
78885;SDS011;68269;52.514;5.722;2023-09-30T07:33:21;13.80;;;4.25;;
78885;SDS011;68269;52.514;5.722;2023-09-30T07:35:51;13.73;;;4.57;;
78885;SDS011;68269;52.514;5.722;2023-09-30T07:38:24;12.10;;;4.25;;
78885;SDS011;68269;52.514;5.722;2023-09-30T07:40:53;14.48;;;4.72;;
78885;SDS011;68269;52.514;5.722;2023-09-30T07:43:22;13.57;;;4.63;;
78885;SDS011;68269;52.514;5.722;2023-09-30T07:45:51;15.25;;;3.97;;
78885;SDS011;68269;52.514;5.722;2023-09-30T07:48:21;12.05;;;4.53;;
78885;SDS011;68269;52.514;5.722;2023-09-30T07:50:51;12.25;;;4.40;;
78885;SDS011;68269;52.514;5.722;2023-09-30T07:53:20;12.63;;;4.38;;
78885;SDS011;68269;52.514;5.722;2023-09-30T07:55:52;11.57;;;4.20;;
78885;SDS011;68269;52.514;5.722;2023-09-30T07:58:22;17.33;;;4.35;;
78885;SDS011;68269;52.514;5.722;2023-09-30T08:00:51;16.15;;;5.35;;
78885;SDS011;68269;52.514;5.722;2023-09-30T08:03:21;12.65;;;4.47;;
78885;SDS011;68269;52.514;5.722;2023-09-30T08:05:50;10.68;;;3.92;;
78885;SDS011;68269;52.514;5.722;2023-09-30T08:08:19;13.27;;;4.47;;
78885;SDS011;68269;52.514;5.722;2023-09-30T08:10:52;13.10;;;4.63;;
78885;SDS011;68269;52.514;5.722;2023-09-30T08:13:22;12.77;;;4.65;;
78885;SDS011;68269;52.514;5.722;2023-09-30T08:15:52;14.23;;;4.63;;
78885;SDS011;68269;52.514;5.722;2023-09-30T08:18:21;14.57;;;4.63;;
78885;SDS011;68269;52.514;5.722;2023-09-30T08:20:50;14.07;;;4.18;;
78885;SDS011;68269;52.514;5.722;2023-09-30T08:23:20;12.73;;;4.50;;
78885;SDS011;68269;52.514;5.722;2023-09-30T08:25:52;14.68;;;4.97;;
78885;SDS011;68269;52.514;5.722;2023-09-30T08:28:21;15.55;;;3.78;;
78885;SDS011;68269;52.514;5.722;2023-09-30T08:30:51;12.13;;;4.22;;
78885;SDS011;68269;52.514;5.722;2023-09-30T08:33:24;13.70;;;3.97;;
78885;SDS011;68269;52.514;5.722;2023-09-30T08:35:56;11.68;;;4.38;;
78885;SDS011;68269;52.514;5.722;2023-09-30T08:38:33;10.57;;;3.20;;
78885;SDS011;68269;52.514;5.722;2023-09-30T08:41:05;14.23;;;3.42;;
78885;SDS011;68269;52.514;5.722;2023-09-30T08:43:37;10.93;;;3.50;;
78885;SDS011;68269;52.514;5.722;2023-09-30T08:46:08;12.07;;;4.00;;
78885;SDS011;68269;52.514;5.722;2023-09-30T08:48:37;13.20;;;3.72;;
78885;SDS011;68269;52.514;5.722;2023-09-30T08:51:07;9.73;;;3.88;;
78885;SDS011;68269;52.514;5.722;2023-09-30T08:53:37;13.10;;;4.22;;
78885;SDS011;68269;52.514;5.722;2023-09-30T08:56:09;11.45;;;3.20;;
78885;SDS011;68269;52.514;5.722;2023-09-30T08:58:40;13.23;;;3.90;;
78885;SDS011;68269;52.514;5.722;2023-09-30T09:01:09;12.88;;;3.72;;
78885;SDS011;68269;52.514;5.722;2023-09-30T09:03:39;13.52;;;3.97;;
78885;SDS011;68269;52.514;5.722;2023-09-30T09:06:09;11.73;;;3.45;;
78885;SDS011;68269;52.514;5.722;2023-09-30T09:08:38;9.93;;;3.10;;
78885;SDS011;68269;52.514;5.722;2023-09-30T09:11:10;10.23;;;3.28;;
78885;SDS011;68269;52.514;5.722;2023-09-30T09:13:46;12.52;;;2.85;;
78885;SDS011;68269;52.514;5.722;2023-09-30T09:16:21;11.80;;;3.92;;
78885;SDS011;68269;52.514;5.722;2023-09-30T09:18:51;9.90;;;3.47;;
78885;SDS011;68269;52.514;5.722;2023-09-30T09:21:21;12.43;;;3.92;;
78885;SDS011;68269;52.514;5.722;2023-09-30T09:23:53;11.10;;;3.58;;
78885;SDS011;68269;52.514;5.722;2023-09-30T09:26:26;11.73;;;4.20;;
78885;SDS011;68269;52.514;5.722;2023-09-30T09:28:57;12.70;;;3.63;;
78885;SDS011;68269;52.514;5.722;2023-09-30T09:31:27;11.25;;;3.45;;
78885;SDS011;68269;52.514;5.722;2023-09-30T09:34:00;11.60;;;3.55;;
78885;SDS011;68269;52.514;5.722;2023-09-30T09:36:39;11.15;;;3.63;;
78885;SDS011;68269;52.514;5.722;2023-09-30T09:39:09;11.50;;;3.53;;
78885;SDS011;68269;52.514;5.722;2023-09-30T09:41:51;13.38;;;3.90;;
78885;SDS011;68269;52.514;5.722;2023-09-30T09:44:23;11.18;;;3.28;;
78885;SDS011;68269;52.514;5.722;2023-09-30T09:46:53;12.13;;;3.90;;
78885;SDS011;68269;52.514;5.722;2023-09-30T09:49:23;10.00;;;3.20;;
78885;SDS011;68269;52.514;5.722;2023-09-30T09:51:54;9.70;;;2.90;;
78885;SDS011;68269;52.514;5.722;2023-09-30T09:54:25;11.82;;;3.35;;
78885;SDS011;68269;52.514;5.722;2023-09-30T09:56:57;11.15;;;3.13;;
78885;SDS011;68269;52.514;5.722;2023-09-30T09:59:29;9.88;;;3.60;;
78885;SDS011;68269;52.514;5.722;2023-09-30T10:01:58;9.93;;;2.50;;
78885;SDS011;68269;52.514;5.722;2023-09-30T10:04:29;9.20;;;2.70;;
78885;SDS011;68269;52.514;5.722;2023-09-30T10:06:58;11.40;;;2.70;;
78885;SDS011;68269;52.514;5.722;2023-09-30T10:09:29;11.10;;;2.88;;
78885;SDS011;68269;52.514;5.722;2023-09-30T10:12:02;11.63;;;2.83;;
78885;SDS011;68269;52.514;5.722;2023-09-30T10:14:34;12.93;;;2.80;;
78885;SDS011;68269;52.514;5.722;2023-09-30T10:17:04;10.70;;;1.95;;
78885;SDS011;68269;52.514;5.722;2023-09-30T10:19:33;12.43;;;2.65;;
78885;SDS011;68269;52.514;5.722;2023-09-30T10:24:51;7.90;;;2.10;;
78885;SDS011;68269;52.514;5.722;2023-09-30T10:27:38;5.82;;;1.40;;
78885;SDS011;68269;52.514;5.722;2023-09-30T10:30:10;7.72;;;2.17;;
78885;SDS011;68269;52.514;5.722;2023-09-30T10:35:42;7.93;;;1.55;;
78885;SDS011;68269;52.514;5.722;2023-09-30T10:41:11;6.32;;;1.10;;
78885;SDS011;68269;52.514;5.722;2023-09-30T10:50:48;14.30;;;2.10;;
78885;SDS011;68269;52.514;5.722;2023-09-30T10:53:20;10.05;;;1.65;;
78885;SDS011;68269;52.514;5.722;2023-09-30T10:55:53;7.63;;;1.92;;
78885;SDS011;68269;52.514;5.722;2023-09-30T10:58:35;7.65;;;1.63;;
78885;SDS011;68269;52.514;5.722;2023-09-30T11:01:10;10.90;;;1.73;;
78885;SDS011;68269;52.514;5.722;2023-09-30T11:03:41;10.55;;;1.98;;
78885;SDS011;68269;52.514;5.722;2023-09-30T11:06:11;9.13;;;2.05;;
78885;SDS011;68269;52.514;5.722;2023-09-30T11:08:48;4.50;;;1.30;;
78885;SDS011;68269;52.514;5.722;2023-09-30T11:11:19;7.38;;;1.25;;
78885;SDS011;68269;52.514;5.722;2023-09-30T11:14:03;7.53;;;1.48;;
78885;SDS011;68269;52.514;5.722;2023-09-30T11:16:47;4.20;;;0.93;;
78885;SDS011;68269;52.514;5.722;2023-09-30T11:19:17;4.68;;;0.80;;
78885;SDS011;68269;52.514;5.722;2023-09-30T11:21:48;6.72;;;0.93;;
78885;SDS011;68269;52.514;5.722;2023-09-30T11:24:18;3.65;;;0.90;;
78885;SDS011;68269;52.514;5.722;2023-09-30T11:26:48;8.82;;;1.10;;
78885;SDS011;68269;52.514;5.722;2023-09-30T11:29:22;6.78;;;1.35;;
78885;SDS011;68269;52.514;5.722;2023-09-30T11:31:55;5.65;;;1.10;;
78885;SDS011;68269;52.514;5.722;2023-09-30T11:34:30;6.95;;;1.13;;
78885;SDS011;68269;52.514;5.722;2023-09-30T11:37:02;7.38;;;0.98;;
78885;SDS011;68269;52.514;5.722;2023-09-30T11:39:31;5.57;;;0.90;;
78885;SDS011;68269;52.514;5.722;2023-09-30T11:42:01;6.50;;;1.65;;
78885;SDS011;68269;52.514;5.722;2023-09-30T11:44:30;7.60;;;1.40;;
78885;SDS011;68269;52.514;5.722;2023-09-30T11:47:03;6.40;;;0.80;;
78885;SDS011;68269;52.514;5.722;2023-09-30T11:49:35;3.05;;;0.65;;
78885;SDS011;68269;52.514;5.722;2023-09-30T11:52:06;5.57;;;0.88;;
78885;SDS011;68269;52.514;5.722;2023-09-30T11:54:37;5.90;;;1.17;;
78885;SDS011;68269;52.514;5.722;2023-09-30T11:57:09;6.65;;;0.80;;
78885;SDS011;68269;52.514;5.722;2023-09-30T11:59:41;9.07;;;1.10;;
78885;SDS011;68269;52.514;5.722;2023-09-30T12:02:13;7.43;;;0.75;;
78885;SDS011;68269;52.514;5.722;2023-09-30T12:04:44;5.38;;;1.02;;
78885;SDS011;68269;52.514;5.722;2023-09-30T12:07:14;4.40;;;0.65;;
78885;SDS011;68269;52.514;5.722;2023-09-30T12:09:44;4.72;;;0.88;;
78885;SDS011;68269;52.514;5.722;2023-09-30T12:12:13;4.38;;;0.82;;
78885;SDS011;68269;52.514;5.722;2023-09-30T12:14:43;6.57;;;0.98;;
78885;SDS011;68269;52.514;5.722;2023-09-30T12:17:16;7.55;;;1.20;;
78885;SDS011;68269;52.514;5.722;2023-09-30T12:19:47;3.25;;;0.65;;
78885;SDS011;68269;52.514;5.722;2023-09-30T12:22:17;8.13;;;0.90;;
78885;SDS011;68269;52.514;5.722;2023-09-30T12:24:46;10.50;;;1.08;;
78885;SDS011;68269;52.514;5.722;2023-09-30T12:27:15;6.18;;;0.90;;
78885;SDS011;68269;52.514;5.722;2023-09-30T12:29:44;10.00;;;1.20;;
78885;SDS011;68269;52.514;5.722;2023-09-30T12:32:16;5.07;;;1.13;;
78885;SDS011;68269;52.514;5.722;2023-09-30T12:34:46;9.27;;;1.20;;
78885;SDS011;68269;52.514;5.722;2023-09-30T12:37:15;7.22;;;0.75;;
78885;SDS011;68269;52.514;5.722;2023-09-30T12:39:44;7.72;;;1.33;;
78885;SDS011;68269;52.514;5.722;2023-09-30T12:42:13;6.10;;;1.10;;
78885;SDS011;68269;52.514;5.722;2023-09-30T12:44:43;4.30;;;0.88;;
78885;SDS011;68269;52.514;5.722;2023-09-30T12:47:12;7.60;;;1.40;;
78885;SDS011;68269;52.514;5.722;2023-09-30T12:49:44;8.35;;;1.23;;
78885;SDS011;68269;52.514;5.722;2023-09-30T12:52:13;3.10;;;0.93;;
78885;SDS011;68269;52.514;5.722;2023-09-30T12:54:42;3.03;;;0.60;;
78885;SDS011;68269;52.514;5.722;2023-09-30T12:57:12;5.32;;;1.20;;
78885;SDS011;68269;52.514;5.722;2023-09-30T12:59:43;7.78;;;1.08;;
78885;SDS011;68269;52.514;5.722;2023-09-30T13:02:14;9.77;;;1.00;;
78885;SDS011;68269;52.514;5.722;2023-09-30T13:04:46;6.18;;;0.93;;
78885;SDS011;68269;52.514;5.722;2023-09-30T13:07:16;6.25;;;0.77;;
78885;SDS011;68269;52.514;5.722;2023-09-30T13:09:45;6.72;;;0.90;;
78885;SDS011;68269;52.514;5.722;2023-09-30T13:12:14;6.13;;;0.98;;
78885;SDS011;68269;52.514;5.722;2023-09-30T13:14:44;6.45;;;1.08;;
78885;SDS011;68269;52.514;5.722;2023-09-30T13:17:13;4.63;;;0.85;;
78885;SDS011;68269;52.514;5.722;2023-09-30T13:19:42;7.88;;;1.40;;
78885;SDS011;68269;52.514;5.722;2023-09-30T13:22:15;9.50;;;0.70;;
78885;SDS011;68269;52.514;5.722;2023-09-30T13:24:45;7.35;;;0.93;;
78885;SDS011;68269;52.514;5.722;2023-09-30T13:27:14;5.70;;;0.93;;
78885;SDS011;68269;52.514;5.722;2023-09-30T13:29:44;5.22;;;0.70;;
78885;SDS011;68269;52.514;5.722;2023-09-30T13:32:13;4.55;;;0.68;;
78885;SDS011;68269;52.514;5.722;2023-09-30T13:34:45;7.57;;;0.80;;
78885;SDS011;68269;52.514;5.722;2023-09-30T13:37:17;4.03;;;0.73;;
78885;SDS011;68269;52.514;5.722;2023-09-30T13:39:46;5.75;;;0.77;;
78885;SDS011;68269;52.514;5.722;2023-09-30T13:42:16;2.95;;;0.70;;
78885;SDS011;68269;52.514;5.722;2023-09-30T13:44:46;6.40;;;1.17;;
78885;SDS011;68269;52.514;5.722;2023-09-30T13:47:15;5.68;;;0.90;;
78885;SDS011;68269;52.514;5.722;2023-09-30T13:49:44;5.82;;;0.82;;
78885;SDS011;68269;52.514;5.722;2023-09-30T13:52:16;8.95;;;1.00;;
78885;SDS011;68269;52.514;5.722;2023-09-30T13:54:46;6.07;;;1.00;;
78885;SDS011;68269;52.514;5.722;2023-09-30T13:57:15;9.50;;;1.20;;
78885;SDS011;68269;52.514;5.722;2023-09-30T13:59:44;6.40;;;0.98;;
78885;SDS011;68269;52.514;5.722;2023-09-30T14:02:14;9.18;;;1.17;;
78885;SDS011;68269;52.514;5.722;2023-09-30T14:04:43;7.25;;;1.20;;
78885;SDS011;68269;52.514;5.722;2023-09-30T14:07:12;7.43;;;1.27;;
78885;SDS011;68269;52.514;5.722;2023-09-30T14:09:46;6.35;;;0.80;;
78885;SDS011;68269;52.514;5.722;2023-09-30T14:12:19;9.43;;;0.93;;
78885;SDS011;68269;52.514;5.722;2023-09-30T14:14:48;6.45;;;1.00;;
78885;SDS011;68269;52.514;5.722;2023-09-30T14:17:18;6.15;;;0.93;;
78885;SDS011;68269;52.514;5.722;2023-09-30T14:19:47;4.82;;;0.73;;
78885;SDS011;68269;52.514;5.722;2023-09-30T14:22:16;5.82;;;0.88;;
78885;SDS011;68269;52.514;5.722;2023-09-30T14:24:48;7.82;;;0.95;;
78885;SDS011;68269;52.514;5.722;2023-09-30T14:27:17;6.90;;;0.85;;
78885;SDS011;68269;52.514;5.722;2023-09-30T14:29:47;5.90;;;1.00;;
78885;SDS011;68269;52.514;5.722;2023-09-30T14:32:16;4.35;;;0.60;;
78885;SDS011;68269;52.514;5.722;2023-09-30T14:34:46;6.65;;;1.00;;
78885;SDS011;68269;52.514;5.722;2023-09-30T14:37:15;5.65;;;0.88;;
78885;SDS011;68269;52.514;5.722;2023-09-30T14:39:48;5.80;;;1.10;;
78885;SDS011;68269;52.514;5.722;2023-09-30T14:42:17;5.38;;;1.10;;
78885;SDS011;68269;52.514;5.722;2023-09-30T14:44:46;6.28;;;1.13;;
78885;SDS011;68269;52.514;5.722;2023-09-30T14:47:16;7.80;;;1.50;;
78885;SDS011;68269;52.514;5.722;2023-09-30T14:49:45;6.22;;;1.15;;
78885;SDS011;68269;52.514;5.722;2023-09-30T14:52:14;5.22;;;1.10;;
78885;SDS011;68269;52.514;5.722;2023-09-30T14:54:44;5.18;;;1.27;;
78885;SDS011;68269;52.514;5.722;2023-09-30T14:57:15;7.00;;;1.15;;
78885;SDS011;68269;52.514;5.722;2023-09-30T14:59:46;6.50;;;1.05;;
78885;SDS011;68269;52.514;5.722;2023-09-30T15:02:15;4.90;;;0.85;;
78885;SDS011;68269;52.514;5.722;2023-09-30T15:04:45;8.07;;;0.70;;
78885;SDS011;68269;52.514;5.722;2023-09-30T15:07:14;4.03;;;0.85;;
78885;SDS011;68269;52.514;5.722;2023-09-30T15:09:44;8.88;;;0.75;;
78885;SDS011;68269;52.514;5.722;2023-09-30T15:12:16;14.18;;;1.20;;
78885;SDS011;68269;52.514;5.722;2023-09-30T15:14:45;9.88;;;1.40;;
78885;SDS011;68269;52.514;5.722;2023-09-30T15:17:14;6.13;;;1.10;;
78885;SDS011;68269;52.514;5.722;2023-09-30T15:19:44;5.93;;;0.98;;
78885;SDS011;68269;52.514;5.722;2023-09-30T15:22:14;6.55;;;1.20;;
78885;SDS011;68269;52.514;5.722;2023-09-30T15:24:43;7.82;;;1.77;;